createdAt,value
2023-07-27T00:00:46.931Z,47.92
2023-07-27T00:01:46.901Z,46.18
2023-07-27T00:02:46.893Z,43.28
2023-07-27T00:03:47.072Z,42.41
2023-07-27T00:04:46.846Z,42.76
2023-07-27T00:05:46.824Z,43.55
2023-07-27T00:06:46.815Z,46.03
2023-07-27T00:07:46.815Z,48.75
2023-07-27T00:08:46.783Z,50.21
2023-07-27T00:09:46.810Z,52.60
2023-07-27T00:10:46.754Z,54.54
2023-07-27T00:11:46.749Z,55.70
2023-07-27T00:12:46.784Z,58.45
2023-07-27T00:13:46.725Z,59.99
2023-07-27T00:14:46.730Z,63.10
2023-07-27T00:15:46.737Z,63.91
2023-07-27T00:16:46.763Z,63.05
2023-07-27T00:17:46.799Z,63.87
2023-07-27T00:18:46.697Z,65.25
2023-07-27T00:19:46.702Z,66.13
2023-07-27T00:20:46.685Z,63.67
2023-07-27T00:21:46.700Z,62.67
2023-07-27T00:22:46.623Z,62.07
2023-07-27T00:23:46.654Z,60.60
2023-07-27T00:24:46.649Z,58.90
2023-07-27T00:25:46.672Z,57.69
2023-07-27T00:26:46.675Z,57.45
2023-07-27T00:27:46.601Z,56.64
2023-07-27T00:28:46.598Z,55.70
2023-07-27T00:29:46.593Z,56.18
2023-07-27T00:30:46.603Z,56.14
2023-07-27T00:31:46.600Z,57.61
2023-07-27T00:32:46.594Z,59.06
2023-07-27T00:33:46.527Z,61.08
2023-07-27T00:34:46.516Z,62.21
2023-07-27T00:35:46.544Z,62.21
2023-07-27T00:36:46.480Z,62.96
2023-07-27T00:37:46.505Z,66.33
2023-07-27T00:38:46.477Z,68.27
2023-07-27T00:39:46.553Z,69.23
2023-07-27T00:40:46.483Z,72.14
2023-07-27T00:41:46.449Z,73.72
2023-07-27T00:42:46.440Z,73.27
2023-07-27T00:43:46.408Z,69.00
2023-07-27T00:44:46.422Z,65.36
2023-07-27T00:45:46.534Z,65.15
2023-07-27T00:46:46.454Z,65.76
2023-07-27T00:47:46.433Z,65.82
2023-07-27T00:48:46.411Z,65.61
2023-07-27T00:49:46.358Z,65.87
2023-07-27T00:50:46.348Z,65.66
2023-07-27T00:51:46.357Z,66.02
2023-07-27T00:52:46.328Z,68.22
2023-07-27T00:53:46.305Z,69.34
2023-07-27T00:54:46.317Z,69.98
2023-07-27T00:55:46.365Z,69.40
2023-07-27T00:56:46.280Z,70.27
2023-07-27T00:57:46.284Z,72.89
2023-07-27T00:58:46.278Z,74.71
2023-07-27T00:59:46.303Z,75.38
2023-07-27T01:00:46.238Z,74.97
2023-07-27T01:01:46.278Z,73.15
2023-07-27T01:02:46.253Z,72.33
2023-07-27T01:03:46.259Z,73.21
2023-07-27T01:04:46.232Z,73.59
2023-07-27T01:05:46.180Z,74.11
2023-07-27T01:06:46.166Z,74.38
2023-07-27T01:07:46.231Z,74.24
2023-07-27T01:08:46.148Z,74.38
2023-07-27T01:09:46.150Z,73.21
2023-07-27T01:10:46.133Z,71.53
2023-07-27T01:11:46.150Z,72.70
2023-07-27T01:12:46.103Z,72.96
2023-07-27T01:13:46.134Z,72.33
2023-07-27T01:14:46.129Z,72.02
2023-07-27T01:15:46.073Z,69.69
2023-07-27T01:16:46.170Z,70.45
2023-07-27T01:17:46.544Z,70.21
2023-07-27T01:18:46.059Z,71.29
2023-07-27T01:19:46.874Z,70.80
2023-07-27T01:20:46.020Z,70.86
2023-07-27T01:21:46.015Z,68.72
2023-07-27T01:22:45.997Z,67.61
2023-07-27T01:23:45.992Z,67.08
2023-07-27T01:24:46.036Z,65.25
2023-07-27T01:25:45.999Z,64.21
2023-07-27T01:26:45.964Z,63.00
2023-07-27T01:27:45.950Z,63.77
2023-07-27T01:28:46.820Z,63.43
2023-07-27T01:29:46.331Z,62.21
2023-07-27T01:30:45.938Z,59.95
2023-07-27T01:31:46.272Z,58.90
2023-07-27T01:32:45.932Z,60.16
2023-07-27T01:33:45.894Z,60.38
2023-07-27T01:34:45.896Z,59.86
2023-07-27T01:35:45.862Z,59.15
2023-07-27T01:36:45.865Z,57.92
2023-07-27T01:37:45.854Z,57.76
2023-07-27T01:38:45.868Z,58.04
2023-07-27T01:39:45.826Z,56.14
2023-07-27T01:40:46.135Z,54.93
2023-07-27T01:41:46.093Z,54.68
2023-07-27T01:42:45.801Z,53.64
2023-07-27T01:43:45.794Z,53.84
2023-07-27T01:44:45.798Z,54.15
2023-07-27T01:45:45.816Z,53.53
2023-07-27T01:46:45.776Z,53.74
2023-07-27T01:47:45.805Z,53.23
2023-07-27T01:48:45.730Z,53.57
2023-07-27T01:49:45.736Z,54.15
2023-07-27T01:50:45.721Z,53.03
2023-07-27T01:51:45.754Z,52.56
2023-07-27T01:52:45.684Z,52.47
2023-07-27T01:53:45.674Z,52.08
2023-07-27T01:54:45.720Z,50.72
2023-07-27T01:55:45.661Z,49.01
2023-07-27T01:56:45.658Z,48.31
2023-07-27T01:57:45.667Z,48.42
2023-07-27T01:58:45.638Z,50.66
2023-07-27T01:59:45.609Z,51.09
2023-07-27T02:00:45.644Z,51.38
2023-07-27T02:01:45.645Z,51.98
2023-07-27T02:02:45.617Z,51.79
2023-07-27T02:03:45.566Z,50.78
2023-07-27T02:04:45.578Z,50.21
2023-07-27T02:05:45.570Z,50.78
2023-07-27T02:06:45.562Z,50.48
2023-07-27T02:07:45.549Z,50.18
2023-07-27T02:08:45.519Z,49.50
2023-07-27T02:09:45.534Z,49.56
2023-07-27T02:10:45.528Z,49.59
2023-07-27T02:11:45.494Z,47.35
2023-07-27T02:12:45.481Z,46.34
2023-07-27T02:13:45.479Z,45.98
2023-07-27T02:14:45.483Z,46.39
2023-07-27T02:15:45.562Z,47.76
2023-07-27T02:16:45.453Z,48.19
2023-07-27T02:17:45.476Z,48.06
2023-07-27T02:18:45.435Z,48.39
2023-07-27T02:19:45.421Z,47.95
2023-07-27T02:20:45.416Z,47.59
2023-07-27T02:21:45.419Z,46.75
2023-07-27T02:22:45.388Z,46.39
2023-07-27T02:23:45.368Z,47.01
2023-07-27T02:24:45.467Z,47.30
2023-07-27T02:25:45.391Z,47.35
2023-07-27T02:26:45.480Z,47.01
2023-07-27T02:27:45.365Z,47.33
2023-07-27T02:28:45.361Z,47.51
2023-07-27T02:29:45.308Z,47.27
2023-07-27T02:30:45.316Z,46.85
2023-07-27T02:31:45.362Z,47.25
2023-07-27T02:32:45.317Z,47.57
2023-07-27T02:33:45.268Z,47.30
2023-07-27T02:34:45.287Z,47.49
2023-07-27T02:35:45.282Z,47.22
2023-07-27T02:36:45.295Z,47.54
2023-07-27T02:37:45.219Z,47.89
2023-07-27T02:38:45.217Z,50.00
2023-07-27T02:39:45.208Z,51.91
2023-07-27T02:40:45.192Z,53.71
2023-07-27T02:41:45.205Z,55.74
2023-07-27T02:42:45.189Z,56.71
2023-07-27T02:43:45.182Z,57.88
2023-07-27T02:44:45.165Z,55.85
2023-07-27T02:45:45.176Z,53.88
2023-07-27T02:46:45.140Z,52.08
2023-07-27T02:47:45.248Z,50.48
2023-07-27T02:48:45.130Z,49.12
2023-07-27T02:49:45.137Z,47.33
2023-07-27T02:50:45.089Z,47.46
2023-07-27T02:51:45.103Z,48.84
2023-07-27T02:52:45.067Z,47.76
2023-07-27T02:53:45.099Z,47.03
2023-07-27T02:54:45.048Z,46.54
2023-07-27T02:55:45.053Z,45.93
2023-07-27T02:56:45.040Z,46.28
2023-07-27T02:57:45.023Z,46.96
2023-07-27T02:58:45.003Z,48.11
2023-07-27T02:59:45.081Z,49.73
2023-07-27T03:00:44.991Z,50.21
2023-07-27T03:01:44.985Z,50.39
2023-07-27T03:02:45.030Z,51.66
2023-07-27T03:03:44.951Z,52.14
2023-07-27T03:04:45.028Z,52.17
2023-07-27T03:05:44.926Z,51.85
2023-07-27T03:06:44.932Z,51.60
2023-07-27T03:07:44.912Z,50.88
2023-07-27T03:08:44.902Z,50.18
2023-07-27T03:09:44.918Z,49.01
2023-07-27T03:10:44.902Z,49.73
2023-07-27T03:11:44.868Z,50.39
2023-07-27T03:12:44.866Z,51.56
2023-07-27T03:13:44.858Z,51.16
2023-07-27T03:14:44.867Z,51.50
2023-07-27T03:15:44.862Z,51.85
2023-07-27T03:16:44.833Z,51.60
2023-07-27T03:17:44.840Z,51.95
2023-07-27T03:18:44.835Z,51.82
2023-07-27T03:19:44.809Z,51.38
2023-07-27T03:20:44.777Z,50.57
2023-07-27T03:21:44.769Z,48.00
2023-07-27T03:22:44.770Z,47.57
2023-07-27T03:23:44.755Z,48.08
2023-07-27T03:24:44.778Z,46.23
2023-07-27T03:25:44.739Z,44.95
2023-07-27T03:26:44.733Z,45.05
2023-07-27T03:27:44.705Z,44.19
2023-07-27T03:28:45.850Z,42.58
2023-07-27T03:29:44.687Z,42.12
2023-07-27T03:30:44.732Z,41.21
2023-07-27T03:31:44.662Z,41.49
2023-07-27T03:32:44.729Z,43.20
2023-07-27T03:33:44.675Z,44.10
2023-07-27T03:34:44.667Z,45.05
2023-07-27T03:35:44.640Z,45.24
2023-07-27T03:36:44.643Z,44.95
2023-07-27T03:37:44.610Z,43.55
2023-07-27T03:38:44.587Z,42.50
2023-07-27T03:39:44.605Z,41.25
2023-07-27T03:40:44.581Z,41.21
2023-07-27T03:41:44.559Z,40.53
2023-07-27T03:42:44.608Z,39.47
2023-07-27T03:43:44.571Z,38.39
2023-07-27T03:44:44.526Z,38.60
2023-07-27T03:45:44.525Z,40.46
2023-07-27T03:46:44.532Z,40.85
2023-07-27T03:47:46.371Z,40.85
2023-07-27T03:48:44.763Z,41.05
2023-07-27T03:49:44.475Z,40.03
2023-07-27T03:50:44.463Z,39.28
2023-07-27T03:51:44.464Z,38.81
2023-07-27T03:52:44.473Z,38.74
2023-07-27T03:53:44.465Z,39.58
2023-07-27T03:54:44.447Z,40.15
2023-07-27T03:55:44.404Z,41.05
2023-07-27T03:56:44.397Z,41.70
2023-07-27T03:57:44.411Z,41.99
2023-07-27T03:58:44.401Z,42.07
2023-07-27T03:59:44.371Z,42.16
2023-07-27T04:00:44.390Z,41.49
2023-07-27T04:01:44.425Z,40.49
2023-07-27T04:02:44.417Z,40.18
2023-07-27T04:03:44.370Z,40.07
2023-07-27T04:04:44.336Z,40.34
2023-07-27T04:05:44.334Z,40.18
2023-07-27T04:06:44.351Z,39.84
2023-07-27T04:07:44.305Z,39.17
2023-07-27T04:08:44.298Z,38.25
2023-07-27T04:09:44.305Z,37.40
2023-07-27T04:10:44.255Z,36.71
2023-07-27T04:11:44.260Z,36.15
2023-07-27T04:12:44.242Z,35.90
2023-07-27T04:13:44.226Z,35.53
2023-07-27T04:14:44.218Z,35.06
2023-07-27T04:15:44.230Z,34.49
2023-07-27T04:16:44.227Z,33.66
2023-07-27T04:17:44.234Z,32.82
2023-07-27T04:18:44.217Z,32.29
2023-07-27T04:19:44.167Z,31.42
2023-07-27T04:20:44.200Z,30.49
2023-07-27T04:21:44.154Z,29.92
2023-07-27T04:22:44.150Z,29.61
2023-07-27T04:23:44.148Z,29.61
2023-07-27T04:24:44.189Z,29.10
2023-07-27T04:25:44.124Z,28.58
2023-07-27T04:26:44.136Z,28.31
2023-07-27T04:27:44.090Z,27.95
2023-07-27T04:28:44.157Z,27.25
2023-07-27T04:29:44.094Z,26.48
2023-07-27T04:30:44.122Z,25.62
2023-07-27T04:31:44.040Z,24.81
2023-07-27T04:32:44.109Z,24.33
2023-07-27T04:33:44.054Z,23.86
2023-07-27T04:34:44.056Z,23.51
2023-07-27T04:35:44.031Z,23.14
2023-07-27T04:36:44.079Z,22.82
2023-07-27T04:37:44.013Z,22.52
2023-07-27T04:38:43.985Z,22.22
2023-07-27T04:39:43.983Z,21.71
2023-07-27T04:40:44.000Z,21.44
2023-07-27T04:41:43.954Z,21.08
2023-07-27T04:42:43.954Z,20.81
2023-07-27T04:43:43.958Z,20.54
2023-07-27T04:44:43.917Z,20.36
2023-07-27T04:45:43.930Z,20.09
2023-07-27T04:46:43.992Z,19.84
2023-07-27T04:47:43.915Z,19.46
2023-07-27T04:48:43.878Z,19.17
2023-07-27T04:49:43.876Z,18.93
2023-07-27T04:50:43.850Z,18.65
2023-07-27T04:51:43.841Z,18.31
2023-07-27T04:52:43.873Z,18.16
2023-07-27T04:53:43.854Z,17.82
2023-07-27T04:54:43.809Z,17.70
2023-07-27T04:55:43.808Z,17.51
2023-07-27T04:56:43.802Z,17.31
2023-07-27T04:57:43.800Z,17.08
2023-07-27T04:58:43.797Z,16.96
2023-07-27T04:59:43.757Z,16.78
2023-07-27T05:00:43.742Z,16.67
2023-07-27T05:01:43.792Z,16.48
2023-07-27T05:02:43.865Z,16.38
2023-07-27T05:03:43.744Z,16.33
2023-07-27T05:04:43.794Z,16.39
2023-07-27T05:05:43.770Z,16.35
2023-07-27T05:06:43.766Z,16.42
2023-07-27T05:07:43.726Z,16.34
2023-07-27T05:08:43.712Z,16.33
2023-07-27T05:09:43.682Z,16.35
2023-07-27T05:10:43.700Z,16.24
2023-07-27T05:11:43.694Z,16.23
2023-07-27T05:12:43.631Z,16.26
2023-07-27T05:13:43.620Z,16.25
2023-07-27T05:14:43.676Z,16.20
2023-07-27T05:15:43.613Z,16.13
2023-07-27T05:16:43.697Z,16.04
2023-07-27T05:17:43.648Z,15.94
2023-07-27T05:18:43.687Z,15.90
2023-07-27T05:19:43.568Z,15.87
2023-07-27T05:20:43.627Z,15.75
2023-07-27T05:21:43.598Z,15.79
2023-07-27T05:22:43.630Z,15.79
2023-07-27T05:23:43.525Z,15.75
2023-07-27T05:24:43.564Z,15.66
2023-07-27T05:25:43.494Z,15.64
2023-07-27T05:26:43.495Z,15.71
2023-07-27T05:27:43.499Z,15.78
2023-07-27T05:28:43.486Z,15.72
2023-07-27T05:29:43.514Z,15.87
2023-07-27T05:30:43.439Z,15.90
2023-07-27T05:31:43.488Z,15.87
2023-07-27T05:32:43.456Z,15.87
2023-07-27T05:33:43.504Z,15.79
2023-07-27T05:34:43.413Z,15.86
2023-07-27T05:35:43.410Z,15.79
2023-07-27T05:36:43.423Z,15.75
2023-07-27T05:37:43.399Z,15.73
2023-07-27T05:38:43.344Z,15.81
2023-07-27T05:39:43.356Z,15.85
2023-07-27T05:40:43.343Z,15.90
2023-07-27T05:41:43.332Z,15.92
2023-07-27T05:42:43.580Z,15.78
2023-07-27T05:43:43.347Z,15.82
2023-07-27T05:44:43.309Z,15.86
2023-07-27T05:45:43.294Z,15.78
2023-07-27T05:46:43.283Z,15.84
2023-07-27T05:47:43.293Z,15.84
2023-07-27T05:48:43.239Z,15.75
2023-07-27T05:49:43.268Z,15.82
2023-07-27T05:50:43.238Z,15.87
2023-07-27T05:51:43.212Z,15.90
2023-07-27T05:52:43.220Z,15.92
2023-07-27T05:53:43.186Z,15.91
2023-07-27T05:54:43.193Z,15.94
2023-07-27T05:55:43.194Z,15.98
2023-07-27T05:56:43.155Z,15.96
2023-07-27T05:57:43.148Z,16.00
2023-07-27T05:58:43.143Z,15.97
2023-07-27T05:59:49.258Z,16.09
2023-07-27T06:00:43.109Z,16.20
2023-07-27T06:01:43.165Z,16.26
2023-07-27T06:02:43.187Z,16.26
2023-07-27T06:03:46.344Z,16.33
2023-07-27T06:04:43.086Z,16.33
2023-07-27T06:05:43.052Z,16.39
2023-07-27T06:06:44.914Z,16.42
2023-07-27T06:07:43.037Z,16.47
2023-07-27T06:08:43.049Z,16.46
2023-07-27T06:09:43.016Z,16.51
2023-07-27T06:10:43.019Z,16.52
2023-07-27T06:11:42.999Z,16.52
2023-07-27T06:12:43.049Z,16.53
2023-07-27T06:13:42.997Z,16.60
2023-07-27T06:14:42.975Z,16.60
2023-07-27T06:15:42.995Z,16.72
2023-07-27T06:16:43.013Z,16.73
2023-07-27T06:17:42.972Z,16.81
2023-07-27T06:18:42.954Z,16.81
2023-07-27T06:19:42.915Z,16.83
2023-07-27T06:20:42.915Z,16.81
2023-07-27T06:21:42.905Z,16.87
2023-07-27T06:22:42.879Z,16.85
2023-07-27T06:23:42.870Z,16.80
2023-07-27T06:24:42.953Z,16.89
2023-07-27T06:25:42.853Z,16.92
2023-07-27T06:26:42.841Z,17.04
2023-07-27T06:27:43.147Z,16.99
2023-07-27T06:28:42.819Z,16.95
2023-07-27T06:29:42.825Z,16.95
2023-07-27T06:30:42.856Z,17.04
2023-07-27T06:31:42.852Z,17.08
2023-07-27T06:32:42.865Z,17.11
2023-07-27T06:33:42.774Z,17.07
2023-07-27T06:34:42.762Z,17.06
2023-07-27T06:35:42.760Z,17.02
2023-07-27T06:36:42.809Z,16.96
2023-07-27T06:37:42.771Z,16.92
2023-07-27T06:38:42.735Z,16.98
2023-07-27T06:39:42.708Z,16.95
2023-07-27T06:40:42.702Z,16.91
2023-07-27T06:41:42.717Z,16.92
2023-07-27T06:42:42.699Z,16.92
2023-07-27T06:43:42.687Z,16.88
2023-07-27T06:44:42.664Z,16.87
2023-07-27T06:45:42.641Z,17.06
2023-07-27T06:46:42.723Z,16.99
2023-07-27T06:47:42.715Z,17.02
2023-07-27T06:48:42.672Z,17.04
2023-07-27T06:49:42.640Z,17.08
2023-07-27T06:50:42.617Z,17.00
2023-07-27T06:51:42.620Z,16.98
2023-07-27T06:52:42.584Z,16.95
2023-07-27T06:53:42.590Z,16.87
2023-07-27T06:54:42.597Z,16.87
2023-07-27T06:55:42.551Z,16.81
2023-07-27T06:56:42.530Z,16.89
2023-07-27T06:57:42.510Z,16.88
2023-07-27T06:58:42.527Z,16.81
2023-07-27T06:59:42.505Z,16.87
2023-07-27T07:00:42.608Z,16.78
2023-07-27T07:01:42.503Z,16.81
2023-07-27T07:02:42.580Z,16.87
2023-07-27T07:03:42.479Z,16.89
2023-07-27T07:04:42.527Z,16.83
2023-07-27T07:05:42.448Z,16.92
2023-07-27T07:06:42.430Z,16.92
2023-07-27T07:07:42.424Z,17.00
2023-07-27T07:08:42.397Z,17.00
2023-07-27T07:09:42.404Z,17.02
2023-07-27T07:10:42.413Z,17.04
2023-07-27T07:11:42.390Z,17.00
2023-07-27T07:12:42.384Z,17.10
2023-07-27T07:13:42.363Z,17.10
2023-07-27T07:14:42.350Z,17.20
2023-07-27T07:15:42.338Z,17.23
2023-07-27T07:16:42.391Z,17.23
2023-07-27T07:17:42.388Z,17.24
2023-07-27T07:18:42.305Z,17.31
2023-07-27T07:19:42.344Z,17.21
2023-07-27T07:20:42.279Z,17.34
2023-07-27T07:21:42.276Z,17.41
2023-07-27T07:22:42.281Z,17.33
2023-07-27T07:23:42.289Z,17.33
2023-07-27T07:24:42.334Z,17.35
2023-07-27T07:25:42.262Z,17.37
2023-07-27T07:26:42.749Z,17.35
2023-07-27T07:27:42.223Z,17.34
2023-07-27T07:28:42.202Z,17.31
2023-07-27T07:29:42.192Z,17.30
2023-07-27T07:30:42.254Z,17.28
2023-07-27T07:31:42.171Z,17.27
2023-07-27T07:32:42.200Z,17.28
2023-07-27T07:33:42.152Z,17.25
2023-07-27T07:34:42.146Z,17.31
2023-07-27T07:35:42.163Z,17.34
2023-07-27T07:36:42.122Z,17.31
2023-07-27T07:37:42.105Z,17.34
2023-07-27T07:38:42.101Z,17.38
2023-07-27T07:39:42.086Z,17.40
2023-07-27T07:40:42.073Z,17.50
2023-07-27T07:41:42.094Z,17.41
2023-07-27T07:42:42.058Z,17.50
2023-07-27T07:43:42.043Z,17.42
2023-07-27T07:44:42.029Z,17.44
2023-07-27T07:45:42.037Z,17.41
2023-07-27T07:46:42.081Z,17.37
2023-07-27T07:47:42.071Z,17.40
2023-07-27T07:48:42.003Z,17.45
2023-07-27T07:49:41.970Z,17.45
2023-07-27T07:50:41.971Z,17.56
2023-07-27T07:51:41.970Z,17.59
2023-07-27T07:52:42.000Z,17.53
2023-07-27T07:53:41.982Z,17.56
2023-07-27T07:54:41.992Z,17.53
2023-07-27T07:55:42.035Z,17.61
2023-07-27T07:56:41.908Z,17.51
2023-07-27T07:57:41.896Z,17.48
2023-07-27T07:58:41.890Z,17.42
2023-07-27T07:59:41.941Z,17.57
2023-07-27T08:00:41.856Z,17.57
2023-07-27T08:01:41.975Z,17.54
2023-07-27T08:02:41.984Z,17.50
2023-07-27T08:03:41.893Z,17.48
2023-07-27T08:04:41.856Z,17.45
2023-07-27T08:05:41.829Z,17.41
2023-07-27T08:06:46.467Z,17.40
2023-07-27T08:07:41.798Z,17.45
2023-07-27T08:08:41.781Z,17.42
2023-07-27T08:09:41.774Z,17.48
2023-07-27T08:10:41.760Z,17.51
2023-07-27T08:11:41.769Z,17.54
2023-07-27T08:12:41.738Z,17.48
2023-07-27T08:13:41.744Z,17.51
2023-07-27T08:14:41.726Z,17.56
2023-07-27T08:15:41.724Z,17.45
2023-07-27T08:16:41.763Z,17.51
2023-07-27T08:17:41.690Z,17.44
2023-07-27T08:18:41.699Z,17.45
2023-07-27T08:19:41.662Z,17.47
2023-07-27T08:20:41.665Z,17.48
2023-07-27T08:21:41.641Z,17.53
2023-07-27T08:22:41.673Z,17.47
2023-07-27T08:23:41.634Z,17.51
2023-07-27T08:24:41.645Z,17.51
2023-07-27T08:25:41.617Z,17.54
2023-07-27T08:26:41.601Z,17.54
2023-07-27T08:27:41.596Z,17.50
2023-07-27T08:28:41.614Z,17.48
2023-07-27T08:29:41.569Z,17.48
2023-07-27T08:30:41.583Z,17.48
2023-07-27T08:31:41.545Z,17.44
2023-07-27T08:32:41.666Z,17.48
2023-07-27T08:33:41.549Z,17.50
2023-07-27T08:34:41.560Z,17.50
2023-07-27T08:35:41.525Z,17.44
2023-07-27T08:36:41.556Z,17.40
2023-07-27T08:37:41.534Z,17.40
2023-07-27T08:38:41.469Z,17.33
2023-07-27T08:39:41.508Z,17.37
2023-07-27T08:40:41.462Z,17.28
2023-07-27T08:41:41.441Z,17.35
2023-07-27T08:42:41.433Z,17.42
2023-07-27T08:43:41.424Z,17.41
2023-07-27T08:44:41.413Z,17.42
2023-07-27T08:45:41.419Z,17.59
2023-07-27T08:46:41.415Z,17.60
2023-07-27T08:47:41.393Z,17.60
2023-07-27T08:48:41.640Z,17.56
2023-07-27T08:49:41.356Z,17.60
2023-07-27T08:50:41.370Z,17.57
2023-07-27T08:51:41.346Z,17.61
2023-07-27T08:52:41.344Z,17.63
2023-07-27T08:53:41.314Z,17.65
2023-07-27T08:54:41.335Z,17.70
2023-07-27T08:55:41.641Z,17.72
2023-07-27T08:56:41.325Z,17.75
2023-07-27T08:57:41.296Z,17.78
2023-07-27T08:58:41.266Z,17.75
2023-07-27T08:59:41.700Z,17.81
2023-07-27T09:00:41.266Z,17.84
2023-07-27T09:01:41.316Z,17.78
2023-07-27T09:02:41.316Z,17.85
2023-07-27T09:03:41.373Z,17.85
2023-07-27T09:04:41.234Z,17.90
2023-07-27T09:05:41.211Z,17.95
2023-07-27T09:06:41.183Z,17.95
2023-07-27T09:07:41.231Z,17.93
2023-07-27T09:08:41.212Z,17.92
2023-07-27T09:09:41.268Z,17.90
2023-07-27T09:10:41.342Z,17.92
2023-07-27T09:11:41.266Z,17.90
2023-07-27T09:12:41.217Z,17.87
2023-07-27T09:13:41.204Z,17.93
2023-07-27T09:14:41.100Z,17.87
2023-07-27T09:15:41.117Z,17.90
2023-07-27T09:16:41.109Z,17.85
2023-07-27T09:17:41.165Z,17.85
2023-07-27T09:18:41.064Z,17.81
2023-07-27T09:19:41.057Z,17.90
2023-07-27T09:20:41.096Z,17.78
2023-07-27T09:21:41.175Z,17.75
2023-07-27T09:22:41.025Z,17.67
2023-07-27T09:23:41.051Z,17.63
2023-07-27T09:24:41.066Z,17.57
2023-07-27T09:25:40.980Z,17.66
2023-07-27T09:26:41.060Z,17.70
2023-07-27T09:27:41.018Z,17.72
2023-07-27T09:28:40.965Z,17.59
2023-07-27T09:29:42.510Z,17.51
2023-07-27T09:30:41.077Z,17.47
2023-07-27T09:31:40.985Z,17.45
2023-07-27T09:32:41.121Z,17.41
2023-07-27T09:33:40.906Z,17.48
2023-07-27T09:34:40.903Z,17.44
2023-07-27T09:35:40.910Z,17.40
2023-07-27T09:36:40.872Z,17.51
2023-07-27T09:37:40.883Z,17.56
2023-07-27T09:38:40.875Z,17.40
2023-07-27T09:39:40.871Z,17.53
2023-07-27T09:40:40.858Z,17.33
2023-07-27T09:41:40.828Z,17.34
2023-07-27T09:42:40.828Z,17.14
2023-07-27T09:43:40.821Z,17.23
2023-07-27T09:44:40.782Z,17.10
2023-07-27T09:45:40.912Z,17.17
2023-07-27T09:46:40.820Z,17.24
2023-07-27T09:47:40.816Z,17.16
2023-07-27T09:48:40.937Z,17.13
2023-07-27T09:49:40.878Z,16.95
2023-07-27T09:50:40.782Z,17.03
2023-07-27T09:51:40.776Z,17.10
2023-07-27T09:52:40.845Z,16.83
2023-07-27T09:55:10.385Z,21.29
2023-07-27T09:56:11.364Z,20.32
2023-07-27T09:57:11.314Z,19.69
2023-07-27T09:58:11.324Z,19.42
2023-07-27T09:59:11.281Z,18.90
2023-07-27T10:00:11.268Z,18.63
2023-07-27T10:01:11.558Z,18.45
2023-07-27T10:02:11.259Z,18.31
2023-07-27T10:03:11.318Z,18.19
2023-07-27T10:04:11.233Z,18.02
2023-07-27T10:05:11.852Z,17.84
2023-07-27T10:06:11.211Z,17.66
2023-07-27T10:07:11.238Z,17.66
2023-07-27T10:08:11.186Z,17.61
2023-07-27T10:09:11.235Z,17.44
2023-07-27T10:10:11.164Z,17.37
2023-07-27T10:11:11.177Z,17.38
2023-07-27T10:12:11.167Z,17.27
2023-07-27T10:13:11.169Z,17.13
2023-07-27T10:14:11.224Z,17.07
2023-07-27T10:15:11.649Z,16.95
2023-07-27T10:16:11.275Z,16.93
2023-07-27T10:17:11.332Z,16.92
2023-07-27T10:18:11.784Z,16.80
2023-07-27T10:19:11.086Z,16.75
2023-07-27T10:20:11.055Z,16.69
2023-07-27T10:21:12.024Z,16.68
2023-07-27T10:22:11.182Z,16.52
2023-07-27T10:23:11.738Z,16.63
2023-07-27T10:24:11.055Z,16.55
2023-07-27T10:25:11.010Z,16.52
2023-07-27T10:26:11.003Z,16.43
2023-07-27T10:27:11.031Z,16.41
2023-07-27T10:28:11.238Z,16.38
2023-07-27T10:29:10.967Z,16.39
2023-07-27T10:30:10.951Z,16.38
2023-07-27T10:31:10.990Z,16.33
2023-07-27T10:32:10.939Z,16.35
2023-07-27T10:33:10.939Z,16.32
2023-07-27T10:34:24.574Z,16.35
2023-07-27T10:35:10.938Z,16.33
2023-07-27T10:36:10.893Z,16.35
2023-07-27T10:37:10.914Z,16.20
2023-07-27T10:38:10.957Z,16.28
2023-07-27T10:39:12.004Z,16.24
2023-07-27T10:40:10.897Z,16.24
2023-07-27T10:41:11.302Z,16.13
2023-07-27T10:42:10.882Z,16.14
2023-07-27T10:43:10.845Z,16.18
2023-07-27T10:44:11.752Z,16.15
2023-07-27T10:45:10.893Z,15.99
2023-07-27T10:46:10.867Z,15.92
2023-07-27T10:47:10.834Z,15.96
2023-07-27T10:48:11.923Z,15.97
2023-07-27T10:49:10.825Z,15.82
2023-07-27T10:50:10.849Z,15.88
2023-07-27T10:51:10.779Z,15.79
2023-07-27T10:52:10.746Z,15.80
2023-07-27T10:53:10.751Z,15.75
2023-07-27T10:54:10.721Z,15.68
2023-07-27T10:55:10.763Z,15.68
2023-07-27T10:56:10.745Z,15.66
2023-07-27T10:57:10.722Z,15.65
2023-07-27T10:58:10.686Z,15.65
2023-07-27T10:59:11.021Z,15.60
2023-07-27T11:00:10.808Z,15.61
2023-07-27T11:01:10.710Z,15.57
2023-07-27T11:02:10.697Z,15.57
2023-07-27T11:03:10.750Z,15.57
2023-07-27T11:04:10.650Z,15.66
2023-07-27T11:05:10.672Z,15.71
2023-07-27T11:06:10.600Z,15.66
2023-07-27T11:07:10.578Z,15.65
2023-07-27T11:08:10.613Z,15.60
2023-07-27T11:09:10.600Z,15.67
2023-07-27T11:10:10.591Z,15.57
2023-07-27T11:11:10.546Z,15.59
2023-07-27T11:12:11.436Z,15.64
2023-07-27T11:13:10.538Z,15.66
2023-07-27T11:14:10.569Z,15.64
2023-07-27T11:15:10.530Z,15.59
2023-07-27T11:16:10.495Z,15.61
2023-07-27T11:17:10.557Z,15.59
2023-07-27T11:18:10.548Z,15.54
2023-07-27T11:19:10.464Z,15.51
2023-07-27T11:20:10.522Z,15.48
2023-07-27T11:21:10.552Z,15.40
2023-07-27T11:22:12.937Z,15.37
2023-07-27T11:23:10.407Z,15.30
2023-07-27T11:24:10.466Z,15.31
2023-07-27T11:25:10.389Z,15.31
2023-07-27T11:26:10.383Z,15.30
2023-07-27T11:27:10.380Z,15.32
2023-07-27T11:28:10.401Z,15.26
2023-07-27T11:29:10.403Z,15.24
2023-07-27T11:30:10.339Z,15.24
2023-07-27T11:31:10.420Z,15.19
2023-07-27T11:32:10.314Z,15.19
2023-07-27T11:33:10.443Z,15.12
2023-07-27T11:34:11.008Z,15.11
2023-07-27T11:35:10.323Z,15.01
2023-07-27T11:36:10.296Z,15.00
2023-07-27T11:37:10.296Z,15.01
2023-07-27T11:38:10.285Z,14.98
2023-07-27T11:39:10.262Z,14.99
2023-07-27T11:40:10.985Z,15.04
2023-07-27T11:41:37.502Z,15.01
2023-07-27T11:42:10.221Z,15.05
2023-07-27T11:43:10.216Z,15.01
2023-07-27T11:44:10.272Z,15.10
2023-07-27T11:45:10.187Z,15.12
2023-07-27T11:46:10.320Z,15.10
2023-07-27T11:47:10.164Z,15.05
2023-07-27T11:48:10.285Z,15.03
2023-07-27T11:49:10.203Z,15.09
2023-07-27T11:50:10.163Z,15.13
2023-07-27T11:51:10.124Z,15.06
2023-07-27T11:52:10.115Z,15.06
2023-07-27T11:53:10.120Z,15.06
2023-07-27T11:54:10.126Z,15.10
2023-07-27T11:55:10.165Z,15.07
2023-07-27T11:56:10.164Z,15.13
2023-07-27T11:57:10.073Z,15.09
2023-07-27T11:58:10.081Z,15.15
2023-07-27T11:59:10.085Z,15.06
2023-07-27T12:00:10.083Z,15.02
2023-07-27T12:01:10.061Z,15.09
2023-07-27T12:02:10.118Z,15.09
2023-07-27T12:03:22.345Z,15.09
2023-07-27T12:04:10.159Z,15.10
2023-07-27T12:05:10.014Z,15.06
2023-07-27T12:06:09.962Z,15.07
2023-07-27T12:07:09.969Z,15.10
2023-07-27T12:09:09.971Z,15.12
2023-07-27T12:11:40.600Z,15.06
2023-07-27T12:12:10.025Z,15.05
2023-07-27T12:14:09.900Z,14.90
2023-07-27T12:15:09.905Z,14.91
2023-07-27T12:17:36.253Z,14.85
2023-07-27T12:18:09.949Z,14.90
2023-07-27T12:19:09.911Z,14.87
2023-07-27T12:20:09.836Z,14.91
2023-07-27T12:32:12.549Z,14.87
2023-07-27T12:33:09.706Z,14.82
2023-07-27T12:34:09.769Z,14.76
2023-07-27T12:36:09.700Z,14.80
2023-07-27T12:39:09.655Z,14.81
2023-07-27T12:40:10.200Z,14.88
2023-07-27T12:41:09.619Z,14.84
2023-07-27T12:43:09.641Z,14.80
2023-07-27T12:44:09.648Z,14.79
2023-07-27T12:45:09.606Z,14.82
2023-07-27T12:46:09.614Z,14.75
2023-07-27T12:47:09.606Z,14.68
2023-07-27T12:48:09.669Z,14.70
2023-07-27T12:49:09.550Z,14.65
2023-07-27T12:50:09.575Z,14.61
2023-07-27T12:51:09.516Z,14.58
2023-07-27T12:52:09.545Z,14.57
2023-07-27T12:53:09.490Z,14.57
2023-07-27T12:54:09.518Z,14.52
2023-07-27T12:55:09.557Z,14.47
2023-07-27T12:56:09.512Z,14.47
2023-07-27T12:57:09.492Z,14.44
2023-07-27T12:58:09.471Z,14.44
2023-07-27T12:59:09.795Z,14.41
2023-07-27T13:00:09.480Z,14.49
2023-07-27T13:01:09.415Z,14.41
2023-07-27T13:02:09.477Z,14.46
2023-07-27T13:03:09.530Z,14.42
2023-07-27T13:04:09.393Z,14.37
2023-07-27T13:05:09.370Z,14.32
2023-07-27T13:06:09.440Z,14.34
2023-07-27T13:07:09.378Z,14.29
2023-07-27T13:08:09.360Z,14.28
2023-07-27T13:09:09.357Z,14.28
2023-07-27T13:10:09.407Z,14.35
2023-07-27T13:11:09.348Z,14.36
2023-07-27T13:12:09.301Z,14.44
2023-07-27T13:13:09.377Z,14.47